Energie Solaire sur 24 Heures


  Une ligne irrégulière au-dessus de la ligne du théorique
  maximum provient généralement de la lumière réfléchie
  par les nuages.
Sunshine for 51 hours
  Ensoleillement Soleil ?  O
  Aujourd'hui maximum (W/m2) : 1252 @ 14:31
  Energie solaire en ce moment (W/m2): 364
   (~% du Théorique max)
  Lever du soleil: 06:15
  Coucher du soleil: 21:29
  Durée du jour: 15:14
 

Heures Solaire - Aujourd'hui et les 7 deniers Jours


  Date Heures  Sunshine Hours for 8 days
  Heures Solaire Aujourd'hui          
  Heures Solaire Hier  5,5
  Heures Solaire 22/05/24  1,2
  Heures Solaire 21/05/24  1,2
  Heures Solaire 20/05/24  1,7
  Heures Solaire 19/05/24  5,0
  Heures Solaire 18/05/24  3,2
  Heures Solaire 17/05/24  8,0
   

Pluie/Evapotranspiration - Humidité Gain/Perte - Aujourd'hui + les derniers 28 Jours

L´évapotranspiration est calculée à partir de: la température de l´air, l´humidité relative , la moyenne de la vitesse du vent et du rayonnement solaire.
Date Pluie ( mm ) Evapotranspiration Gain quotidien(+)/Perte(-) Gain accumulé(+)/Perte(-)
      ( mm )   ( mm )   ( mm )  
Aujourd'hui 0.00     0.00 à :15:17      
Hier +8.00   +3.00   +5.00   +5.00   De 15:17 à Hier
22/05/2024 +12.00   +1.00   +11.00   +16.00   De 15:17 au 22/05/2024
21/05/2024 +28.00   +1.00   +27.00   +43.00   De 15:17 au 21/05/2024
20/05/2024 +16.00   +1.00   +15.00   +58.00   De 15:17 au 20/05/2024
19/05/2024 0.00   +2.00   -2.00   +56.00   De 15:17 au 19/05/2024
18/05/2024 +21.00   +2.00   +19.00   +75.00   De 15:17 au 18/05/2024
17/05/2024 0.00   +3.00   -3.00   +72.00   De 15:17 au 17/05/2024
16/05/2024 +1.00   +2.00   -1.00   +71.00   De 15:17 au 16/05/2024
15/05/2024 +4.00   +1.00   +3.00   +74.00   De 15:17 au 15/05/2024
14/05/2024 +26.00   +1.00   +25.00   +99.00   De 15:17 au 14/05/2024
13/05/2024 +1.00   +3.00   -2.00   +97.00   De 15:17 au 13/05/2024
12/05/2024 +5.00   +1.00   +4.00   +101.00   De 15:17 au 12/05/2024
11/05/2024 0.00   +5.00   -5.00   +96.00   De 15:17 au 11/05/2024
10/05/2024 0.00   +4.00   -4.00   +92.00   De 15:17 au 10/05/2024
09/05/2024 0.00   +5.00   -5.00   +87.00   De 15:17 au 09/05/2024
08/05/2024 0.00   +3.00   -3.00   +84.00   De 15:17 au 08/05/2024
07/05/2024 +7.00   +2.00   +5.00   +89.00   De 15:17 au 07/05/2024
06/05/2024 +7.00   +2.00   +5.00   +94.00   De 15:17 au 06/05/2024
05/05/2024 +12.00   +1.00   +11.00   +105.00   De 15:17 au 05/05/2024
04/05/2024 +23.00   0.00   +23.00   +128.00   De 15:17 au 04/05/2024
03/05/2024 +6.00   +1.00   +5.00   +133.00   De 15:17 au 03/05/2024
02/05/2024 +11.00   +1.00   +10.00   +143.00   De 15:17 au 02/05/2024
01/05/2024 +31.00   0.00   +31.00   +174.00   De 15:17 au 01/05/2024
30/04/2024 +7.00   0.00   +7.00   +181.00   De 15:17 au 30/04/2024
29/04/2024 +1.00   +1.00   0.00   +181.00   De 15:17 au 29/04/2024
28/04/2024 0.00   +3.00   -3.00   +178.00   De 15:17 au 28/04/2024
27/04/2024 +24.00   +2.00   +22.00   +200.00   De 15:17 au 27/04/2024
26/04/2024 +6.00   +1.00   +5.00   +205.00   De 15:17 au 26/04/2024